createdAt,value
2022-12-17T00:01:24.835Z,100.00
2022-12-17T00:04:12.810Z,100.00
2022-12-17T00:07:00.997Z,100.00
2022-12-17T00:09:50.427Z,100.00
2022-12-17T00:12:38.325Z,100.00
2022-12-17T00:15:26.941Z,100.00
2022-12-17T00:18:45.917Z,100.00
2022-12-17T00:21:33.956Z,100.00
2022-12-17T00:24:22.109Z,100.00
2022-12-17T00:27:09.976Z,100.00
2022-12-17T00:29:58.146Z,100.00
2022-12-17T00:32:46.311Z,100.00
2022-12-17T00:35:34.633Z,100.00
2022-12-17T00:38:22.834Z,100.00
2022-12-17T00:41:12.632Z,100.00
2022-12-17T00:44:00.753Z,100.00
2022-12-17T00:46:49.009Z,100.00
2022-12-17T00:49:36.838Z,100.00
2022-12-17T00:52:24.950Z,100.00
2022-12-17T00:55:13.292Z,100.00
2022-12-17T00:58:01.408Z,100.00
2022-12-17T01:00:49.695Z,100.00
2022-12-17T01:03:38.325Z,100.00
2022-12-17T01:06:27.251Z,100.00
2022-12-17T01:09:15.385Z,100.00
2022-12-17T01:12:03.359Z,100.00
2022-12-17T01:14:51.553Z,100.00
2022-12-17T01:17:39.805Z,100.00
2022-12-17T01:20:28.371Z,100.00
2022-12-17T01:23:16.521Z,100.00
2022-12-17T01:26:16.343Z,100.00
2022-12-17T01:29:04.538Z,100.00
2022-12-17T01:31:52.826Z,100.00
2022-12-17T01:34:41.840Z,100.00
2022-12-17T01:37:32.898Z,100.00
2022-12-17T01:40:21.148Z,100.00
2022-12-17T01:43:09.055Z,100.00
2022-12-17T01:46:03.958Z,100.00
2022-12-17T01:49:05.035Z,100.00
2022-12-17T01:51:55.137Z,100.00
2022-12-17T01:54:44.103Z,100.00
2022-12-17T01:57:32.752Z,100.00
2022-12-17T02:00:33.953Z,100.00
2022-12-17T02:03:23.019Z,100.00
2022-12-17T02:06:39.800Z,100.00
2022-12-17T02:10:32.616Z,100.00
2022-12-17T02:13:53.357Z,100.00
2022-12-17T02:17:02.245Z,100.00
2022-12-17T02:20:14.724Z,100.00
2022-12-17T02:23:41.044Z,100.00
2022-12-17T02:26:48.358Z,100.00
2022-12-17T02:29:38.348Z,100.00
2022-12-17T02:32:29.918Z,100.00
2022-12-17T02:35:23.650Z,100.00
2022-12-17T02:38:11.813Z,100.00
2022-12-17T02:41:04.038Z,100.00
2022-12-17T02:43:53.191Z,100.00
2022-12-17T02:46:41.547Z,100.00
2022-12-17T02:49:29.804Z,100.00
2022-12-17T02:52:18.304Z,100.00
2022-12-17T02:55:06.257Z,100.00
2022-12-17T02:57:54.718Z,100.00
2022-12-17T03:00:43.119Z,100.00
2022-12-17T03:03:31.370Z,100.00
2022-12-17T03:06:19.679Z,100.00
2022-12-17T03:09:07.893Z,100.00
2022-12-17T03:11:56.242Z,100.00
2022-12-17T03:14:42.702Z,100.00
2022-12-17T03:17:30.767Z,100.00
2022-12-17T03:20:18.859Z,100.00
2022-12-17T03:23:06.807Z,100.00
2022-12-17T03:25:55.004Z,100.00
2022-12-17T03:28:43.068Z,100.00
2022-12-17T03:31:31.001Z,100.00
2022-12-17T03:34:19.008Z,100.00
2022-12-17T03:37:07.112Z,100.00
2022-12-17T03:39:55.439Z,100.00
2022-12-17T03:42:43.492Z,100.00
2022-12-17T03:45:31.974Z,100.00
2022-12-17T03:48:30.969Z,100.00
2022-12-17T03:51:20.307Z,100.00
2022-12-17T03:54:08.217Z,100.00
2022-12-17T03:56:56.514Z,100.00
2022-12-17T03:59:44.665Z,100.00
2022-12-17T04:02:32.867Z,100.00
2022-12-17T04:05:21.080Z,100.00
2022-12-17T04:08:09.391Z,100.00
2022-12-17T04:10:58.619Z,100.00
2022-12-17T04:13:47.244Z,100.00
2022-12-17T04:16:35.699Z,100.00
2022-12-17T04:19:23.903Z,100.00
2022-12-17T04:22:11.996Z,100.00
2022-12-17T04:25:00.191Z,100.00
2022-12-17T04:27:48.006Z,100.00
2022-12-17T04:30:36.420Z,100.00
2022-12-17T04:33:24.697Z,100.00
2022-12-17T04:36:12.920Z,100.00
2022-12-17T04:39:01.256Z,100.00
2022-12-17T04:41:49.225Z,100.00
2022-12-17T04:44:37.449Z,100.00
2022-12-17T04:47:25.726Z,100.00
2022-12-17T04:50:13.793Z,100.00
2022-12-17T04:53:02.103Z,100.00
2022-12-17T04:55:50.343Z,100.00
2022-12-17T04:58:38.535Z,100.00
2022-12-17T05:01:26.839Z,100.00
2022-12-17T05:04:15.058Z,100.00
2022-12-17T05:07:03.329Z,100.00
2022-12-17T05:09:51.346Z,100.00
2022-12-17T05:12:39.305Z,100.00
2022-12-17T05:15:27.657Z,100.00
2022-12-17T05:18:27.748Z,100.00
2022-12-17T05:21:16.096Z,100.00
2022-12-17T05:24:03.992Z,100.00
2022-12-17T05:26:52.169Z,100.00
2022-12-17T05:29:40.787Z,100.00
2022-12-17T05:32:28.998Z,100.00
2022-12-17T05:35:17.986Z,100.00
2022-12-17T05:38:06.175Z,100.00
2022-12-17T05:40:54.646Z,100.00
2022-12-17T05:43:42.802Z,100.00
2022-12-17T05:46:30.892Z,100.00
2022-12-17T05:49:18.985Z,100.00
2022-12-17T05:52:07.108Z,100.00
2022-12-17T05:54:56.139Z,100.00
2022-12-17T05:57:44.252Z,100.00
2022-12-17T06:00:34.207Z,100.00
2022-12-17T06:03:23.793Z,100.00
2022-12-17T06:06:15.740Z,100.00
2022-12-17T06:09:03.895Z,100.00
2022-12-17T06:12:19.856Z,100.00
2022-12-17T06:15:07.992Z,100.00
2022-12-17T06:17:56.250Z,100.00
2022-12-17T06:20:44.339Z,100.00
2022-12-17T06:23:33.036Z,100.00
2022-12-17T06:26:21.374Z,100.00
2022-12-17T06:29:09.629Z,100.00
2022-12-17T06:31:57.994Z,100.00
2022-12-17T06:34:46.313Z,100.00
2022-12-17T06:37:34.612Z,100.00
2022-12-17T06:40:23.356Z,100.00
2022-12-17T06:43:16.124Z,100.00
2022-12-17T06:46:04.359Z,100.00
2022-12-17T06:48:52.500Z,100.00
2022-12-17T06:51:40.522Z,100.00
2022-12-17T06:54:45.458Z,100.00
2022-12-17T06:57:36.537Z,100.00
2022-12-17T07:00:30.263Z,100.00
2022-12-17T07:03:18.462Z,100.00
2022-12-17T07:06:09.590Z,100.00
2022-12-17T07:08:57.783Z,100.00
2022-12-17T07:11:45.713Z,100.00
2022-12-17T07:14:33.771Z,100.00
2022-12-17T07:17:21.789Z,100.00
2022-12-17T07:20:09.851Z,100.00
2022-12-17T07:22:58.046Z,100.00
2022-12-17T07:25:46.500Z,100.00
2022-12-17T07:28:34.414Z,100.00
2022-12-17T07:31:22.542Z,100.00
2022-12-17T07:34:10.636Z,100.00
2022-12-17T07:36:58.522Z,100.00
2022-12-17T07:39:46.200Z,100.00
2022-12-17T07:42:34.271Z,100.00
2022-12-17T07:45:22.624Z,100.00
2022-12-17T07:48:14.391Z,100.00
2022-12-17T07:51:02.364Z,100.00
2022-12-17T07:53:50.514Z,100.00
2022-12-17T07:56:38.999Z,100.00
2022-12-17T07:59:27.192Z,100.00
2022-12-17T08:02:15.362Z,100.00
2022-12-17T08:05:03.734Z,100.00
2022-12-17T08:07:51.800Z,100.00
2022-12-17T08:10:40.088Z,100.00
2022-12-17T08:13:28.657Z,100.00
2022-12-17T08:16:16.922Z,100.00
2022-12-17T08:19:05.038Z,100.00
2022-12-17T08:21:53.239Z,100.00
2022-12-17T08:24:41.101Z,100.00
2022-12-17T08:27:29.347Z,100.00
2022-12-17T08:30:17.516Z,100.00
2022-12-17T08:33:05.635Z,100.00
2022-12-17T08:35:53.851Z,100.00
2022-12-17T08:38:42.024Z,100.00
2022-12-17T08:41:29.964Z,99.64
2022-12-17T08:44:17.792Z,99.82
2022-12-17T08:47:05.946Z,99.75
2022-12-17T08:49:54.062Z,98.34
2022-12-17T08:52:44.693Z,98.41
2022-12-17T08:55:33.268Z,97.98
2022-12-17T08:58:21.265Z,97.19
2022-12-17T09:01:09.589Z,96.69
2022-12-17T09:03:57.657Z,96.30
2022-12-17T09:06:45.442Z,94.94
2022-12-17T09:09:33.039Z,94.79
2022-12-17T09:12:20.944Z,94.81
2022-12-17T09:15:08.719Z,94.41
2022-12-17T09:17:56.880Z,94.37
2022-12-17T09:20:45.017Z,94.56
2022-12-17T09:23:37.343Z,93.72
2022-12-17T09:26:26.375Z,92.41
2022-12-17T09:29:14.625Z,92.17
2022-12-17T09:32:02.887Z,92.44
2022-12-17T09:34:50.971Z,92.40
2022-12-17T09:37:39.209Z,93.50
2022-12-17T09:40:37.209Z,92.88
2022-12-17T09:44:00.403Z,92.73
2022-12-17T09:47:14.150Z,92.01
2022-12-17T09:50:02.503Z,90.16
2022-12-17T09:52:59.974Z,88.62
2022-12-17T09:56:12.315Z,89.44
2022-12-17T09:59:00.310Z,89.63
2022-12-17T10:01:53.990Z,89.04
2022-12-17T10:04:56.021Z,89.26
2022-12-17T10:07:54.921Z,88.73
2022-12-17T10:10:51.214Z,88.56
2022-12-17T10:13:42.177Z,88.51
2022-12-17T10:16:55.328Z,89.84
2022-12-17T10:19:59.090Z,90.03
2022-12-17T10:22:47.676Z,91.35
2022-12-17T10:25:40.480Z,90.70
2022-12-17T10:28:38.121Z,91.23
2022-12-17T10:31:38.000Z,90.91
2022-12-17T10:34:39.453Z,91.59
2022-12-17T10:37:43.049Z,92.65
2022-12-17T10:40:54.721Z,92.65
2022-12-17T10:43:53.099Z,92.63
2022-12-17T10:46:51.437Z,92.57
2022-12-17T10:49:43.745Z,92.82
2022-12-17T10:52:51.423Z,92.88
2022-12-17T10:55:46.244Z,92.61
2022-12-17T10:58:47.977Z,91.91
2022-12-17T11:01:44.973Z,91.59
2022-12-17T11:04:49.838Z,92.16
2022-12-17T11:08:13.675Z,91.29
2022-12-17T11:11:03.988Z,90.52
2022-12-17T11:14:00.060Z,90.42
2022-12-17T11:17:13.734Z,88.99
2022-12-17T11:20:27.047Z,88.68
2022-12-17T11:23:19.947Z,89.23
2022-12-17T11:26:27.665Z,88.07
2022-12-17T11:29:18.364Z,88.05
2022-12-17T11:32:36.693Z,88.14
2022-12-17T11:36:40.830Z,88.29
2022-12-17T11:40:00.600Z,88.82
2022-12-17T11:43:04.642Z,89.26
2022-12-17T11:46:32.317Z,89.47
2022-12-17T11:49:57.486Z,88.62
2022-12-17T11:53:38.873Z,87.31
2022-12-17T11:56:39.316Z,86.83
2022-12-17T11:59:54.908Z,86.84
2022-12-17T12:03:09.549Z,88.43
2022-12-17T12:06:18.396Z,88.48
2022-12-17T12:09:40.887Z,88.78
2022-12-17T12:13:09.694Z,87.91
2022-12-17T12:16:46.446Z,87.08
2022-12-17T12:20:02.266Z,85.69
2022-12-17T12:23:21.136Z,85.71
2022-12-17T12:26:27.014Z,86.19
2022-12-17T12:29:55.325Z,85.08
2022-12-17T12:33:19.792Z,84.95
2022-12-17T12:36:10.538Z,84.98
2022-12-17T12:39:03.976Z,84.27
2022-12-17T12:42:52.055Z,84.75
2022-12-17T12:46:09.397Z,84.95
2022-12-17T12:49:19.374Z,85.41
2022-12-17T12:52:13.598Z,85.77
2022-12-17T12:55:04.360Z,84.68
2022-12-17T12:58:14.800Z,85.64
2022-12-17T13:01:05.660Z,85.58
2022-12-17T13:04:02.647Z,85.45
2022-12-17T13:06:57.123Z,85.67
2022-12-17T13:09:52.733Z,84.27
2022-12-17T13:12:46.481Z,85.86
2022-12-17T13:15:37.889Z,85.77
2022-12-17T13:18:36.423Z,84.80
2022-12-17T13:21:27.314Z,85.45
2022-12-17T13:23:56.890Z,85.39
2022-12-17T13:26:44.054Z,85.40
2022-12-17T13:29:37.261Z,84.57
2022-12-17T13:32:30.562Z,84.44
2022-12-17T13:35:42.396Z,84.67
2022-12-17T13:38:50.546Z,85.65
2022-12-17T13:41:28.523Z,85.67
2022-12-17T13:44:23.979Z,86.00
2022-12-17T13:46:55.676Z,85.42
2022-12-17T13:49:30.860Z,85.91
2022-12-17T13:52:17.641Z,86.27
2022-12-17T13:54:50.024Z,84.95
2022-12-17T13:57:26.242Z,86.37
2022-12-17T13:59:59.459Z,85.98
2022-12-17T14:02:33.846Z,86.52
2022-12-17T14:05:08.313Z,85.41
2022-12-17T14:07:40.312Z,86.02
2022-12-17T14:10:20.505Z,85.58
2022-12-17T14:12:50.170Z,85.69
2022-12-17T14:15:25.783Z,85.91
2022-12-17T14:17:57.030Z,86.30
2022-12-17T14:20:34.452Z,86.07
2022-12-17T14:23:30.320Z,85.25
2022-12-17T14:26:00.855Z,86.23
2022-12-17T14:28:50.476Z,85.83
2022-12-17T14:31:30.986Z,86.31
2022-12-17T14:34:08.177Z,86.31
2022-12-17T14:36:43.438Z,86.50
2022-12-17T14:39:25.197Z,87.83
2022-12-17T14:42:26.205Z,86.92
2022-12-17T14:44:58.664Z,87.20
2022-12-17T14:47:35.224Z,86.49
2022-12-17T14:50:36.418Z,87.61
2022-12-17T14:53:27.931Z,87.42
2022-12-17T14:55:59.282Z,88.07
2022-12-17T14:58:28.826Z,87.45
2022-12-17T15:01:14.279Z,87.96
2022-12-17T15:03:46.952Z,88.37
2022-12-17T15:06:20.091Z,88.10
2022-12-17T15:08:51.325Z,88.44
2022-12-17T15:11:23.621Z,89.37
2022-12-17T15:13:56.656Z,89.16
2022-12-17T15:16:27.270Z,89.81
2022-12-17T15:18:56.848Z,89.87
2022-12-17T15:21:27.619Z,90.95
2022-12-17T15:23:57.248Z,91.11
2022-12-17T15:26:26.925Z,91.34
2022-12-17T15:28:57.168Z,92.19
2022-12-17T15:31:30.603Z,92.83
2022-12-17T15:34:03.279Z,92.77
2022-12-17T15:36:33.613Z,92.67
2022-12-17T15:39:06.286Z,92.62
2022-12-17T15:41:54.638Z,92.16
2022-12-17T15:44:24.161Z,92.42
2022-12-17T15:46:53.728Z,92.39
2022-12-17T15:49:22.086Z,92.80
2022-12-17T15:51:51.628Z,92.30
2022-12-17T15:54:21.171Z,92.44
2022-12-17T15:56:55.715Z,92.12
2022-12-17T15:59:25.565Z,91.98
2022-12-17T16:01:55.266Z,92.64
2022-12-17T16:04:25.488Z,93.32
2022-12-17T16:06:55.458Z,93.83
2022-12-17T16:09:27.085Z,93.72
2022-12-17T16:11:57.849Z,94.03
2022-12-17T16:14:27.370Z,93.72
2022-12-17T16:16:56.910Z,94.15
2022-12-17T16:19:26.657Z,94.44
2022-12-17T16:21:56.211Z,94.26
2022-12-17T16:24:26.018Z,93.94
2022-12-17T16:27:02.448Z,93.97
2022-12-17T16:29:34.383Z,94.21
2022-12-17T16:32:04.062Z,93.70
2022-12-17T16:34:33.759Z,93.89
2022-12-17T16:37:03.577Z,93.80
2022-12-17T16:39:35.056Z,93.52
2022-12-17T16:42:05.215Z,92.75
2022-12-17T16:44:35.666Z,92.72
2022-12-17T16:47:05.311Z,92.67
2022-12-17T16:49:36.068Z,92.75
2022-12-17T16:52:05.917Z,93.06
2022-12-17T16:54:35.500Z,93.07
2022-12-17T16:57:05.094Z,92.63
2022-12-17T16:59:34.592Z,93.20
2022-12-17T17:02:04.595Z,93.07
2022-12-17T17:04:35.015Z,92.80
2022-12-17T17:07:04.700Z,93.39
2022-12-17T17:09:34.248Z,92.95
2022-12-17T17:12:04.028Z,92.96
2022-12-17T17:14:33.533Z,93.15
2022-12-17T17:17:03.173Z,93.13
2022-12-17T17:19:32.803Z,93.34
2022-12-17T17:22:02.372Z,93.92
2022-12-17T17:24:31.871Z,93.62
2022-12-17T17:27:01.690Z,93.39
2022-12-17T17:29:31.372Z,93.26
2022-12-17T17:32:10.421Z,93.04
2022-12-17T17:34:41.209Z,93.28
2022-12-17T17:37:10.782Z,92.99
2022-12-17T17:39:40.409Z,93.49
2022-12-17T17:42:10.093Z,93.43
2022-12-17T17:44:39.653Z,93.64
2022-12-17T17:47:09.220Z,93.90
2022-12-17T17:49:38.871Z,93.69
2022-12-17T17:52:10.231Z,94.30
2022-12-17T17:54:42.159Z,94.43
2022-12-17T17:57:11.891Z,94.39
2022-12-17T17:59:42.182Z,94.67
2022-12-17T18:02:12.249Z,94.92
2022-12-17T18:04:42.034Z,94.88
2022-12-17T18:07:28.275Z,94.63
2022-12-17T18:09:59.932Z,94.88
2022-12-17T18:12:48.246Z,95.01
2022-12-17T18:15:18.723Z,94.64
2022-12-17T18:17:52.101Z,94.94
2022-12-17T18:20:21.645Z,95.56
2022-12-17T18:22:51.219Z,95.51
2022-12-17T18:25:20.817Z,95.96
2022-12-17T18:27:53.919Z,95.58
2022-12-17T18:30:23.573Z,95.68
2022-12-17T18:32:53.248Z,95.58
2022-12-17T18:35:22.844Z,95.63
2022-12-17T18:37:52.462Z,95.59
2022-12-17T18:40:22.045Z,95.38
2022-12-17T18:43:10.155Z,95.38
2022-12-17T18:45:39.709Z,95.39
2022-12-17T18:48:09.261Z,95.30
2022-12-17T18:50:38.829Z,95.45
2022-12-17T18:53:08.620Z,94.93
2022-12-17T18:55:40.748Z,94.92
2022-12-17T18:58:10.755Z,95.10
2022-12-17T19:00:40.353Z,95.26
2022-12-17T19:03:10.311Z,94.90
2022-12-17T19:05:46.496Z,95.08
2022-12-17T19:08:16.889Z,94.78
2022-12-17T19:10:46.516Z,95.07
2022-12-17T19:13:16.207Z,95.43
2022-12-17T19:15:46.817Z,95.23
2022-12-17T19:18:16.691Z,94.80
2022-12-17T19:20:44.405Z,94.78
2022-12-17T19:23:13.964Z,95.18
2022-12-17T19:25:43.554Z,95.70
2022-12-17T19:28:13.071Z,96.02
2022-12-17T19:30:42.707Z,96.13
2022-12-17T19:33:12.204Z,95.54
2022-12-17T19:35:41.720Z,96.06
2022-12-17T19:38:11.210Z,95.72
2022-12-17T19:40:40.669Z,95.92
2022-12-17T19:43:10.262Z,95.81
2022-12-17T19:45:39.830Z,96.13
2022-12-17T19:48:09.422Z,95.56
2022-12-17T19:50:38.912Z,95.40
2022-12-17T19:53:08.458Z,95.37
2022-12-17T19:55:38.032Z,95.56
2022-12-17T19:58:07.574Z,95.18
2022-12-17T20:00:37.356Z,95.79
2022-12-17T20:03:05.463Z,96.05
2022-12-17T20:05:35.012Z,96.38
2022-12-17T20:08:04.989Z,96.55
2022-12-17T20:10:34.498Z,96.60
2022-12-17T20:13:04.833Z,96.91
2022-12-17T20:15:34.359Z,96.71
2022-12-17T20:18:03.079Z,96.83
2022-12-17T20:20:32.700Z,96.45
2022-12-17T20:23:02.268Z,96.97
2022-12-17T20:25:32.066Z,96.60
2022-12-17T20:28:01.621Z,96.40
2022-12-17T20:30:31.111Z,95.79
2022-12-17T20:33:00.603Z,95.08
2022-12-17T20:35:30.140Z,94.68
2022-12-17T20:37:59.648Z,95.20
2022-12-17T20:40:29.186Z,94.63
2022-12-17T20:42:58.698Z,94.56
2022-12-17T20:45:28.270Z,94.03
2022-12-17T20:47:57.904Z,94.28
2022-12-17T20:50:27.862Z,94.58
2022-12-17T20:53:00.345Z,94.73
2022-12-17T20:55:31.310Z,94.34
2022-12-17T20:58:01.024Z,94.02
2022-12-17T21:00:30.569Z,93.69
2022-12-17T21:03:00.573Z,93.96
2022-12-17T21:05:30.163Z,93.76
2022-12-17T21:07:59.626Z,93.49
2022-12-17T21:10:29.137Z,93.29
2022-12-17T21:13:17.269Z,93.28
2022-12-17T21:15:54.016Z,93.61
2022-12-17T21:18:23.586Z,93.70
2022-12-17T21:21:18.399Z,93.99
2022-12-17T21:23:49.020Z,93.90
2022-12-17T21:26:32.099Z,94.21
2022-12-17T21:29:05.337Z,93.36
2022-12-17T21:31:41.483Z,93.45
2022-12-17T21:34:17.330Z,93.62
2022-12-17T21:36:46.897Z,93.45
2022-12-17T21:39:18.381Z,93.34
2022-12-17T21:42:05.769Z,93.40
2022-12-17T21:44:35.876Z,93.58
2022-12-17T21:47:05.768Z,93.20
2022-12-17T21:49:34.559Z,92.69
2022-12-17T21:52:04.437Z,93.52
2022-12-17T21:54:35.108Z,93.81
2022-12-17T21:57:03.929Z,93.53
2022-12-17T21:59:33.392Z,93.41
2022-12-17T22:02:02.852Z,93.23
2022-12-17T22:04:32.637Z,93.40
2022-12-17T22:07:05.167Z,93.63
2022-12-17T22:09:41.947Z,93.73
2022-12-17T22:12:44.504Z,93.21
2022-12-17T22:15:13.413Z,93.11
2022-12-17T22:17:43.435Z,94.00
2022-12-17T22:20:13.160Z,93.71
2022-12-17T22:22:43.668Z,93.62
2022-12-17T22:25:13.890Z,93.27
2022-12-17T22:27:43.667Z,93.31
2022-12-17T22:30:36.469Z,92.76
2022-12-17T22:33:24.969Z,93.01
2022-12-17T22:37:49.095Z,93.16
2022-12-17T22:42:58.664Z,92.76
2022-12-17T22:44:37.550Z,92.45
2022-12-17T22:44:54.474Z,92.19
2022-12-17T22:47:25.380Z,92.29
2022-12-17T22:49:54.891Z,92.61
2022-12-17T22:52:25.066Z,93.49
2022-12-17T22:54:55.084Z,93.37
2022-12-17T22:57:36.135Z,93.16
2022-12-17T23:00:22.704Z,93.18
2022-12-17T23:02:56.517Z,92.94
2022-12-17T23:05:28.312Z,93.48
2022-12-17T23:07:58.353Z,93.17
2022-12-17T23:10:29.012Z,93.60
2022-12-17T23:12:58.962Z,92.50
2022-12-17T23:15:34.317Z,92.83
2022-12-17T23:18:07.158Z,93.22
2022-12-17T23:20:36.935Z,92.93
2022-12-17T23:23:05.624Z,92.79
2022-12-17T23:25:34.426Z,92.88
2022-12-17T23:28:04.022Z,93.36
2022-12-17T23:30:32.027Z,93.04
2022-12-17T23:33:00.700Z,93.44
2022-12-17T23:35:28.423Z,92.91
2022-12-17T23:37:57.372Z,93.74
2022-12-17T23:40:26.021Z,93.73
2022-12-17T23:42:57.485Z,95.13
2022-12-17T23:45:26.332Z,94.45
2022-12-17T23:47:57.723Z,94.50
2022-12-17T23:50:27.161Z,94.06
2022-12-17T23:52:56.554Z,93.00
2022-12-17T23:55:25.203Z,92.97
2022-12-17T23:57:58.895Z,92.61
